createdAt,value
2019-05-29T00:02:18.403Z,4.03
2019-05-29T00:04:41.934Z,3.67
2019-05-29T00:07:06.095Z,3.27
2019-05-29T00:09:29.742Z,3.67
2019-05-29T00:11:53.264Z,3.90
2019-05-29T00:14:26.597Z,3.35
2019-05-29T00:16:42.103Z,3.40
2019-05-29T00:19:06.950Z,3.52
2019-05-29T00:21:30.825Z,3.92
2019-05-29T00:23:54.355Z,3.75
2019-05-29T00:26:17.888Z,3.52
2019-05-29T00:28:41.476Z,3.67
2019-05-29T00:31:05.812Z,3.92
2019-05-29T00:33:30.359Z,3.58
2019-05-29T00:35:54.908Z,3.50
2019-05-29T00:38:18.426Z,3.50
2019-05-29T00:40:41.975Z,3.30
2019-05-29T00:43:05.523Z,3.60
2019-05-29T00:45:29.064Z,3.42
2019-05-29T00:47:52.569Z,3.37
2019-05-29T00:50:16.442Z,3.75
2019-05-29T00:52:39.966Z,3.77
2019-05-29T00:55:03.990Z,4.00
2019-05-29T00:57:27.532Z,4.50
2019-05-29T00:59:51.144Z,3.87
2019-05-29T01:02:15.882Z,3.87
2019-05-29T01:04:39.497Z,3.80
2019-05-29T01:07:03.025Z,3.70
2019-05-29T01:09:26.549Z,4.10
2019-05-29T01:11:50.091Z,3.83
2019-05-29T01:14:13.608Z,4.53
2019-05-29T01:16:37.150Z,4.70
2019-05-29T01:19:02.301Z,4.92
2019-05-29T01:21:26.503Z,5.10
2019-05-29T01:23:50.214Z,4.40
2019-05-29T01:26:14.512Z,4.37
2019-05-29T01:28:38.038Z,4.60
2019-05-29T01:31:01.567Z,4.22
2019-05-29T01:33:25.195Z,4.30
2019-05-29T01:35:48.739Z,4.12
2019-05-29T01:38:12.260Z,4.35
2019-05-29T01:40:35.801Z,4.30
2019-05-29T01:42:59.297Z,4.22
2019-05-29T01:45:23.559Z,4.40
2019-05-29T01:47:47.162Z,4.72
2019-05-29T01:50:10.950Z,4.53
2019-05-29T01:52:34.472Z,5.03
2019-05-29T01:54:57.999Z,4.72
2019-05-29T01:57:23.590Z,4.97
2019-05-29T01:59:47.391Z,5.10
2019-05-29T02:02:24.570Z,4.92
2019-05-29T02:04:48.660Z,5.10
2019-05-29T02:07:12.209Z,5.05
2019-05-29T02:09:35.730Z,4.37
2019-05-29T02:11:59.280Z,5.12
2019-05-29T02:14:22.834Z,4.97
2019-05-29T02:16:46.408Z,4.72
2019-05-29T02:19:09.997Z,5.12
2019-05-29T02:21:33.551Z,5.17
2019-05-29T02:23:57.066Z,4.85
2019-05-29T02:26:20.608Z,4.35
2019-05-29T02:28:44.119Z,3.83
2019-05-29T02:31:07.766Z,4.33
2019-05-29T02:33:31.268Z,4.50
2019-05-29T02:35:54.802Z,4.92
2019-05-29T02:38:20.459Z,4.87
2019-05-29T02:40:44.193Z,3.92
2019-05-29T02:43:07.791Z,4.85
2019-05-29T02:45:52.848Z,5.53
2019-05-29T02:47:57.643Z,5.10
2019-05-29T02:50:22.158Z,5.40
2019-05-29T02:52:46.205Z,5.40
2019-05-29T02:55:10.476Z,5.37
2019-05-29T02:57:34.014Z,5.97
2019-05-29T02:59:57.632Z,6.37
2019-05-29T03:02:21.540Z,9.48
2019-05-29T03:04:45.211Z,6.22
2019-05-29T03:07:08.877Z,6.58
2019-05-29T03:09:32.843Z,6.30
2019-05-29T03:11:59.961Z,5.62
2019-05-29T03:14:22.875Z,5.53
2019-05-29T03:16:46.563Z,6.30
2019-05-29T03:19:10.072Z,4.78
2019-05-29T03:21:34.702Z,5.20
2019-05-29T03:23:58.524Z,5.55
2019-05-29T03:26:25.313Z,5.50
2019-05-29T03:28:47.537Z,5.55
2019-05-29T03:31:11.070Z,5.10
2019-05-29T03:33:43.769Z,5.80
2019-05-29T03:35:59.837Z,5.17
2019-05-29T03:38:23.415Z,6.30
2019-05-29T03:40:46.939Z,5.83
2019-05-29T03:43:10.479Z,5.67
2019-05-29T03:45:35.747Z,5.17
2019-05-29T03:47:59.334Z,4.53
2019-05-29T03:50:22.871Z,4.35
2019-05-29T03:52:46.406Z,6.20
2019-05-29T03:55:11.123Z,3.40
2019-05-29T03:57:35.807Z,2.50
2019-05-29T03:59:59.544Z,2.35
2019-05-29T04:02:23.080Z,3.12
2019-05-29T04:04:46.616Z,3.45
2019-05-29T04:07:10.170Z,2.60
2019-05-29T04:09:35.310Z,3.05
2019-05-29T04:11:59.153Z,3.65
2019-05-29T04:14:22.669Z,3.30
2019-05-29T04:16:59.217Z,3.60
2019-05-29T04:19:13.541Z,3.98
2019-05-29T04:21:38.648Z,3.95
2019-05-29T04:24:05.603Z,5.58
2019-05-29T04:26:32.335Z,3.70
2019-05-29T04:28:56.486Z,4.12
2019-05-29T04:31:20.176Z,4.00
2019-05-29T04:33:43.726Z,4.58
2019-05-29T04:36:07.279Z,3.67
2019-05-29T04:38:33.813Z,3.98
2019-05-29T04:40:57.184Z,3.55
2019-05-29T04:43:21.762Z,3.83
2019-05-29T04:45:45.345Z,4.25
2019-05-29T04:48:08.881Z,3.87
2019-05-29T04:50:33.486Z,3.90
2019-05-29T04:52:57.652Z,4.20
2019-05-29T04:55:21.184Z,4.15
2019-05-29T04:57:44.735Z,3.85
2019-05-29T05:00:09.014Z,3.75
2019-05-29T05:02:33.003Z,3.70
2019-05-29T05:04:56.673Z,3.77
2019-05-29T05:07:20.207Z,3.25
2019-05-29T05:09:43.751Z,4.05
2019-05-29T05:12:07.258Z,3.52
2019-05-29T05:14:31.476Z,3.40
2019-05-29T05:16:55.454Z,3.72
2019-05-29T05:19:19.066Z,4.00
2019-05-29T05:21:42.655Z,3.30
2019-05-29T05:24:06.351Z,2.80
2019-05-29T05:26:30.080Z,2.70
2019-05-29T05:28:54.725Z,2.70
2019-05-29T05:31:18.323Z,3.80
2019-05-29T05:33:41.850Z,3.58
2019-05-29T05:36:05.439Z,3.62
2019-05-29T05:38:29.039Z,3.98
2019-05-29T05:40:52.601Z,3.25
2019-05-29T05:43:23.986Z,6.95
2019-05-29T05:45:41.429Z,4.85
2019-05-29T05:48:05.099Z,4.40
2019-05-29T05:50:28.643Z,3.72
2019-05-29T05:52:52.239Z,3.30
2019-05-29T05:55:16.813Z,3.85
2019-05-29T05:57:41.854Z,3.80
2019-05-29T06:00:10.965Z,4.60
2019-05-29T06:02:35.799Z,4.87
2019-05-29T06:04:59.597Z,5.83
2019-05-29T06:07:23.115Z,4.22
2019-05-29T06:09:46.681Z,6.15
2019-05-29T06:12:10.215Z,3.62
2019-05-29T06:14:34.717Z,3.05
2019-05-29T06:16:58.266Z,3.20
2019-05-29T06:19:21.835Z,3.05
2019-05-29T06:21:45.382Z,3.05
2019-05-29T06:24:08.921Z,3.58
2019-05-29T06:26:32.812Z,3.47
2019-05-29T06:28:56.423Z,3.10
2019-05-29T06:31:19.989Z,3.33
2019-05-29T06:33:44.043Z,3.08
2019-05-29T06:36:07.740Z,3.02
2019-05-29T06:38:31.271Z,3.10
2019-05-29T06:40:54.816Z,2.87
2019-05-29T06:43:23.235Z,3.58
2019-05-29T06:45:46.815Z,3.80
2019-05-29T06:48:11.924Z,3.50
2019-05-29T06:50:35.473Z,3.40
2019-05-29T06:52:59.007Z,3.08
2019-05-29T06:55:22.555Z,3.40
2019-05-29T06:57:46.074Z,3.12
2019-05-29T07:00:10.157Z,3.20
2019-05-29T07:02:33.695Z,2.90
2019-05-29T07:04:57.241Z,3.10
2019-05-29T07:07:21.319Z,3.75
2019-05-29T07:09:45.187Z,3.35
2019-05-29T07:12:08.838Z,3.50
2019-05-29T07:14:32.352Z,3.15
2019-05-29T07:16:56.551Z,2.62
2019-05-29T07:19:26.785Z,2.83
2019-05-29T07:21:45.370Z,2.47
2019-05-29T07:24:08.890Z,2.37
2019-05-29T07:26:32.479Z,2.52
2019-05-29T07:29:07.266Z,3.00
2019-05-29T07:31:21.275Z,2.60
2019-05-29T07:33:45.256Z,2.80
2019-05-29T07:36:08.947Z,3.08
2019-05-29T07:38:32.479Z,3.08
2019-05-29T07:40:56.058Z,2.80
2019-05-29T07:43:19.555Z,2.67
2019-05-29T07:45:44.054Z,3.30
2019-05-29T07:48:07.758Z,4.08
2019-05-29T07:50:31.302Z,4.50
2019-05-29T07:52:54.861Z,4.80
2019-05-29T07:55:18.549Z,4.70
2019-05-29T07:57:42.828Z,6.22
2019-05-29T08:00:08.285Z,8.25
2019-05-29T08:02:32.059Z,7.12
2019-05-29T08:04:55.583Z,9.85
2019-05-29T08:07:19.185Z,10.48
2019-05-29T08:09:43.627Z,13.20
2019-05-29T08:12:07.343Z,12.00
2019-05-29T08:14:30.869Z,12.80
2019-05-29T08:16:54.412Z,16.20
2019-05-29T08:19:17.950Z,14.65
2019-05-29T08:21:42.680Z,12.28
2019-05-29T08:24:06.404Z,12.90
2019-05-29T08:26:29.949Z,13.15
2019-05-29T08:28:53.542Z,26.15
2019-05-29T08:31:17.139Z,13.93
2019-05-29T08:33:40.837Z,13.50
2019-05-29T08:36:04.475Z,13.48
2019-05-29T08:38:28.069Z,12.82
2019-05-29T08:40:51.614Z,13.65
2019-05-29T08:43:15.165Z,11.85
2019-05-29T08:45:38.702Z,12.07
2019-05-29T08:48:02.264Z,13.83
2019-05-29T08:50:25.798Z,12.60
2019-05-29T08:52:50.135Z,11.40
2019-05-29T08:55:14.075Z,11.38
2019-05-29T08:57:37.671Z,12.10
2019-05-29T09:00:01.209Z,12.23
2019-05-29T09:02:24.726Z,11.03
2019-05-29T09:04:49.868Z,10.63
2019-05-29T09:07:13.600Z,9.48
2019-05-29T09:09:37.131Z,10.00
2019-05-29T09:12:00.714Z,9.85
2019-05-29T09:14:24.279Z,9.30
2019-05-29T09:16:47.827Z,9.45
2019-05-29T09:19:12.119Z,9.13
2019-05-29T09:21:35.688Z,8.70
2019-05-29T09:23:59.307Z,8.00
2019-05-29T09:26:25.744Z,7.92
2019-05-29T09:28:48.163Z,7.17
2019-05-29T09:31:11.657Z,7.53
2019-05-29T09:33:35.207Z,7.17
2019-05-29T09:35:58.721Z,6.80
2019-05-29T09:38:23.037Z,7.35
2019-05-29T09:40:46.590Z,7.37
2019-05-29T09:43:10.235Z,7.10
2019-05-29T09:45:33.911Z,6.55
2019-05-29T09:47:57.468Z,7.08
2019-05-29T09:50:23.329Z,6.95
2019-05-29T09:52:46.424Z,6.70
2019-05-29T09:55:10.110Z,6.00
2019-05-29T09:57:33.673Z,6.55
2019-05-29T09:59:58.465Z,6.75
2019-05-29T10:02:22.456Z,6.30
2019-05-29T10:04:45.980Z,5.50
2019-05-29T10:07:09.526Z,5.35
2019-05-29T10:09:33.054Z,5.58
2019-05-29T10:12:00.973Z,5.08
2019-05-29T10:14:21.931Z,4.78
2019-05-29T10:16:45.462Z,4.67
2019-05-29T10:19:09.117Z,5.25
2019-05-29T10:21:40.030Z,5.33
2019-05-29T10:23:59.533Z,5.15
2019-05-29T10:26:23.238Z,4.83
2019-05-29T10:31:12.065Z,5.30
2019-05-29T10:33:35.625Z,5.53
2019-05-29T10:34:38.795Z,5.40
2019-05-29T10:36:03.439Z,6.30
2019-05-29T10:38:24.420Z,7.42
2019-05-29T10:41:00.480Z,6.37
2019-05-29T10:43:13.234Z,6.30
2019-05-29T10:45:36.745Z,6.40
2019-05-29T10:48:00.287Z,9.45
2019-05-29T10:50:23.893Z,6.75
2019-05-29T10:52:47.906Z,7.03
2019-05-29T10:55:12.269Z,7.50
2019-05-29T10:57:35.812Z,7.60
2019-05-29T10:59:59.486Z,7.65
2019-05-29T11:02:23.050Z,8.15
2019-05-29T11:04:51.587Z,7.20
2019-05-29T11:07:11.851Z,7.60
2019-05-29T11:09:44.325Z,8.10
2019-05-29T11:12:00.709Z,7.97
2019-05-29T11:14:24.235Z,10.90
2019-05-29T11:16:49.021Z,9.33
2019-05-29T11:19:12.784Z,9.90
2019-05-29T11:21:36.315Z,10.03
2019-05-29T11:23:59.881Z,10.28
2019-05-29T11:26:23.411Z,8.20
2019-05-29T11:28:48.247Z,8.88
2019-05-29T11:31:12.078Z,9.00
2019-05-29T11:33:35.645Z,6.30
2019-05-29T11:36:10.013Z,6.45
2019-05-29T11:38:24.511Z,6.15
2019-05-29T11:40:48.484Z,6.60
2019-05-29T11:43:12.318Z,6.50
2019-05-29T11:45:36.159Z,5.00
2019-05-29T11:48:01.605Z,5.62
2019-05-29T11:50:24.885Z,5.12
2019-05-29T11:52:48.397Z,4.47
2019-05-29T11:55:12.630Z,4.95
2019-05-29T11:57:39.463Z,6.20
2019-05-29T12:00:09.626Z,5.60
2019-05-29T12:02:26.814Z,4.53
2019-05-29T12:04:51.099Z,3.83
2019-05-29T12:07:14.890Z,2.80
2019-05-29T12:09:38.475Z,3.00
2019-05-29T12:12:02.261Z,2.60
2019-05-29T12:14:25.878Z,2.33
2019-05-29T12:16:49.403Z,2.17
2019-05-29T12:19:12.946Z,2.20
2019-05-29T12:21:36.477Z,1.80
2019-05-29T12:24:00.335Z,1.65
2019-05-29T12:26:23.931Z,2.00
2019-05-29T12:28:47.537Z,1.75
2019-05-29T12:31:11.091Z,1.52
2019-05-29T12:33:34.628Z,1.80
2019-05-29T12:35:59.116Z,1.62
2019-05-29T12:38:22.685Z,1.40
2019-05-29T12:40:46.282Z,1.52
2019-05-29T12:43:25.975Z,1.50
2019-05-29T12:45:36.079Z,1.40
2019-05-29T12:47:59.874Z,1.40
2019-05-29T12:50:23.743Z,1.17
2019-05-29T12:52:47.267Z,1.40
2019-05-29T12:55:12.559Z,1.30
2019-05-29T12:57:36.217Z,1.47
2019-05-29T13:00:00.294Z,1.10
2019-05-29T13:02:24.031Z,1.17
2019-05-29T13:05:07.012Z,1.10
2019-05-29T13:07:12.850Z,1.25
2019-05-29T13:09:36.522Z,1.20
2019-05-29T13:12:00.659Z,1.30
2019-05-29T13:14:24.321Z,1.12
2019-05-29T13:16:47.871Z,1.30
2019-05-29T13:19:10.421Z,8.73
2019-05-29T13:21:33.962Z,1.67
2019-05-29T13:23:59.749Z,1.27
2019-05-29T13:26:22.817Z,1.10
2019-05-29T13:28:46.353Z,1.10
2019-05-29T13:31:09.893Z,1.00
2019-05-29T13:33:33.409Z,1.10
2019-05-29T13:35:58.066Z,1.25
2019-05-29T13:38:21.749Z,1.50
2019-05-29T13:40:45.353Z,0.90
2019-05-29T13:43:15.208Z,1.00
2019-05-29T13:45:34.157Z,1.00
2019-05-29T13:47:59.004Z,1.17
2019-05-29T13:50:23.339Z,10.05
2019-05-29T13:52:46.934Z,1.70
2019-05-29T13:55:11.003Z,0.90
2019-05-29T13:57:34.520Z,4.33
2019-05-29T13:59:58.036Z,0.98
2019-05-29T14:02:21.708Z,0.90
2019-05-29T14:04:45.218Z,1.12
2019-05-29T14:07:08.976Z,0.95
2019-05-29T14:09:32.572Z,1.00
2019-05-29T14:11:57.152Z,1.20
2019-05-29T14:14:20.757Z,0.98
2019-05-29T14:16:44.303Z,0.90
2019-05-29T14:19:08.870Z,0.93
2019-05-29T14:21:32.559Z,1.10
2019-05-29T14:23:56.070Z,0.90
2019-05-29T14:26:19.629Z,1.00
2019-05-29T14:28:43.138Z,2.00
2019-05-29T14:31:08.251Z,1.40
2019-05-29T14:33:32.046Z,1.00
2019-05-29T14:35:55.592Z,0.90
2019-05-29T14:38:19.160Z,1.00
2019-05-29T14:40:42.706Z,1.20
2019-05-29T14:43:10.124Z,1.22
2019-05-29T14:45:31.847Z,1.47
2019-05-29T14:47:55.405Z,1.05
2019-05-29T14:50:19.176Z,1.05
2019-05-29T14:52:42.748Z,1.17
2019-05-29T14:55:08.775Z,1.10
2019-05-29T14:57:32.569Z,1.30
2019-05-29T14:59:56.083Z,1.20
2019-05-29T15:02:23.950Z,1.02
2019-05-29T15:04:44.868Z,1.62
2019-05-29T15:07:09.757Z,1.30
2019-05-29T15:09:33.422Z,1.12
2019-05-29T15:11:56.964Z,1.37
2019-05-29T15:14:20.482Z,0.90
2019-05-29T15:16:44.116Z,1.12
2019-05-29T15:19:08.860Z,1.20
2019-05-29T15:21:32.484Z,1.30
2019-05-29T15:23:56.030Z,1.17
2019-05-29T15:26:19.551Z,1.20
2019-05-29T15:28:43.134Z,1.00
2019-05-29T15:31:06.647Z,1.10
2019-05-29T15:33:30.183Z,1.00
2019-05-29T15:35:53.703Z,1.27
2019-05-29T15:38:17.285Z,5.00
2019-05-29T15:40:43.395Z,4.62
2019-05-29T15:43:06.941Z,5.20
2019-05-29T15:45:30.484Z,7.15
2019-05-29T15:47:54.030Z,10.20
2019-05-29T15:50:18.147Z,4.70
2019-05-29T15:52:42.738Z,1.40
2019-05-29T15:55:21.402Z,0.90
2019-05-29T15:57:33.039Z,0.90
2019-05-29T15:59:56.573Z,0.70
2019-05-29T16:02:20.170Z,0.90
2019-05-29T16:04:43.743Z,0.80
2019-05-29T16:07:07.862Z,1.30
2019-05-29T16:09:31.551Z,1.50
2019-05-29T16:11:55.159Z,0.90
2019-05-29T16:14:19.166Z,1.20
2019-05-29T16:16:43.072Z,2.45
2019-05-29T16:19:06.705Z,2.25
2019-05-29T16:21:30.253Z,1.12
2019-05-29T16:23:53.804Z,1.00
2019-05-29T16:26:18.262Z,0.82
2019-05-29T16:28:42.661Z,1.00
2019-05-29T16:31:06.179Z,1.00
2019-05-29T16:33:29.915Z,1.65
2019-05-29T16:35:53.439Z,0.80
2019-05-29T16:38:17.616Z,0.80
2019-05-29T16:40:41.238Z,0.80
2019-05-29T16:43:04.843Z,0.70
2019-05-29T16:45:28.433Z,1.00
2019-05-29T16:47:52.053Z,1.00
2019-05-29T16:50:17.348Z,0.82
2019-05-29T16:52:41.130Z,1.15
2019-05-29T16:55:06.250Z,0.90
2019-05-29T16:57:30.450Z,0.90
2019-05-29T16:59:54.067Z,0.70
2019-05-29T17:02:17.812Z,1.02
2019-05-29T17:04:41.572Z,0.95
2019-05-29T17:07:05.151Z,0.90
2019-05-29T17:09:28.696Z,0.90
2019-05-29T17:11:52.224Z,1.00
2019-05-29T17:14:16.444Z,1.00
2019-05-29T17:16:40.090Z,0.95
2019-05-29T17:19:03.705Z,1.00
2019-05-29T17:21:27.261Z,1.00
2019-05-29T17:23:50.787Z,1.00
2019-05-29T17:26:14.644Z,0.90
2019-05-29T17:28:38.328Z,1.20
2019-05-29T17:31:02.456Z,2.02
2019-05-29T17:33:26.257Z,1.00
2019-05-29T17:35:49.848Z,4.35
2019-05-29T17:38:13.444Z,1.17
2019-05-29T17:40:38.082Z,0.78
2019-05-29T17:43:01.668Z,0.95
2019-05-29T17:45:26.126Z,1.00
2019-05-29T17:47:50.516Z,0.70
2019-05-29T17:50:18.037Z,1.25
2019-05-29T17:52:39.407Z,0.90
2019-05-29T17:55:03.449Z,0.85
2019-05-29T17:57:27.089Z,0.80
2019-05-29T17:59:50.676Z,1.37
2019-05-29T18:02:14.247Z,3.25
2019-05-29T18:04:37.929Z,3.05
2019-05-29T18:07:01.464Z,2.08
2019-05-29T18:09:28.747Z,1.20
2019-05-29T18:11:50.345Z,1.20
2019-05-29T18:14:14.055Z,1.15
2019-05-29T18:16:37.770Z,1.85
2019-05-29T18:19:01.307Z,5.40
2019-05-29T18:21:25.743Z,10.93
2019-05-29T18:23:53.128Z,7.72
2019-05-29T18:26:14.838Z,10.10
2019-05-29T18:28:38.443Z,14.95
2019-05-29T18:31:02.033Z,14.18
2019-05-29T18:33:26.577Z,11.68
2019-05-29T18:35:50.541Z,11.30
2019-05-29T18:38:14.206Z,17.42
2019-05-29T18:40:37.774Z,3.98
2019-05-29T18:43:01.325Z,6.90
2019-05-29T18:45:26.253Z,3.17
2019-05-29T18:47:50.238Z,1.50
2019-05-29T18:50:14.856Z,1.30
2019-05-29T18:52:38.662Z,2.20
2019-05-29T18:55:23.435Z,3.65
2019-05-29T18:57:47.014Z,4.62
2019-05-29T19:00:16.014Z,3.25
2019-05-29T19:02:41.837Z,2.17
2019-05-29T19:05:09.778Z,7.45
2019-05-29T19:07:33.367Z,5.58
2019-05-29T19:09:57.061Z,2.90
2019-05-29T19:12:23.617Z,2.10
2019-05-29T19:14:47.407Z,1.22
2019-05-29T19:17:11.035Z,1.05
2019-05-29T19:19:34.629Z,1.35
2019-05-29T19:21:58.200Z,3.35
2019-05-29T19:24:22.556Z,5.60
2019-05-29T19:26:46.173Z,5.12
2019-05-29T19:29:12.367Z,3.80
2019-05-29T19:31:35.935Z,3.02
2019-05-29T19:34:02.151Z,2.50
2019-05-29T19:36:29.853Z,2.35
2019-05-29T19:38:53.577Z,2.62
2019-05-29T19:41:21.840Z,3.10
2019-05-29T19:43:48.875Z,3.47
2019-05-29T19:46:15.421Z,3.05
2019-05-29T19:48:38.933Z,2.70
2019-05-29T19:51:03.210Z,3.00
2019-05-29T19:53:28.019Z,2.80
2019-05-29T19:55:51.989Z,2.27
2019-05-29T19:58:15.604Z,2.20
2019-05-29T20:01:03.226Z,3.50
2019-05-29T20:03:26.813Z,2.40
2019-05-29T20:05:50.354Z,2.58
2019-05-29T20:08:13.895Z,2.00
2019-05-29T20:10:37.567Z,2.00
2019-05-29T20:13:01.134Z,1.80
2019-05-29T20:15:24.638Z,1.98
2019-05-29T20:17:48.262Z,1.80
2019-05-29T20:20:11.948Z,1.72
2019-05-29T20:22:36.758Z,1.90
2019-05-29T20:25:00.957Z,2.00
2019-05-29T20:27:28.611Z,2.12
2019-05-29T20:29:54.475Z,2.52
2019-05-29T20:32:21.606Z,2.33
2019-05-29T20:34:46.725Z,4.03
2019-05-29T20:37:13.361Z,3.02
2019-05-29T20:39:38.487Z,3.42
2019-05-29T20:42:03.043Z,2.47
2019-05-29T20:44:27.640Z,2.00
2019-05-29T20:46:54.475Z,2.00
2019-05-29T20:49:19.500Z,1.98
2019-05-29T20:51:44.488Z,1.85
2019-05-29T20:54:09.585Z,1.62
2019-05-29T20:56:35.844Z,1.57
2019-05-29T20:58:59.438Z,2.02
2019-05-29T21:01:23.027Z,1.60
2019-05-29T21:03:46.578Z,1.45
2019-05-29T21:06:10.106Z,1.70
2019-05-29T21:08:34.713Z,1.40
2019-05-29T21:10:59.323Z,2.02
2019-05-29T21:13:27.810Z,1.60
2019-05-29T21:15:55.103Z,2.47
2019-05-29T21:18:21.896Z,1.85
2019-05-29T21:20:48.524Z,1.60
2019-05-29T21:23:15.686Z,1.50
2019-05-29T21:25:42.916Z,2.52
2019-05-29T21:28:08.542Z,2.22
2019-05-29T21:30:32.804Z,2.00
2019-05-29T21:32:57.595Z,2.20
2019-05-29T21:35:24.623Z,4.87
2019-05-29T21:38:03.710Z,2.60
2019-05-29T21:40:29.134Z,2.08
2019-05-29T21:42:56.165Z,2.10
2019-05-29T21:45:21.149Z,2.20
2019-05-29T21:47:48.878Z,2.58
2019-05-29T21:50:26.432Z,3.17
2019-05-29T21:52:55.062Z,2.65
2019-05-29T21:55:27.514Z,4.25
2019-05-29T21:57:56.439Z,2.10
2019-05-29T22:00:44.523Z,2.20
2019-05-29T22:03:09.496Z,2.50
2019-05-29T22:05:34.333Z,13.83
2019-05-29T22:08:00.792Z,9.60
2019-05-29T22:10:26.262Z,7.35
2019-05-29T22:12:52.296Z,5.90
2019-05-29T22:15:17.190Z,4.10
2019-05-29T22:17:44.782Z,3.83
2019-05-29T22:20:11.621Z,3.47
2019-05-29T22:22:38.346Z,4.50
2019-05-29T22:25:08.215Z,6.17
2019-05-29T22:27:34.454Z,4.40
2019-05-29T22:30:03.499Z,3.15
2019-05-29T22:32:31.240Z,2.65
2019-05-29T22:34:57.636Z,3.62
2019-05-29T22:37:21.846Z,4.50
2019-05-29T22:39:49.195Z,2.70
2019-05-29T22:42:14.763Z,3.70
2019-05-29T22:44:41.798Z,3.30
2019-05-29T22:47:24.479Z,4.45
2019-05-29T22:49:51.635Z,5.30
2019-05-29T22:52:18.916Z,4.17
2019-05-29T22:54:45.517Z,3.22
2019-05-29T22:57:10.233Z,2.83
2019-05-29T22:59:36.485Z,2.95
2019-05-29T23:02:02.588Z,2.85
2019-05-29T23:04:28.570Z,2.47
2019-05-29T23:06:58.335Z,2.95
2019-05-29T23:09:40.266Z,2.50
2019-05-29T23:12:03.897Z,2.20
2019-05-29T23:15:25.176Z,2.00
2019-05-29T23:17:49.094Z,2.02
2019-05-29T23:20:13.104Z,1.92
2019-05-29T23:22:40.120Z,2.00
2019-05-29T23:25:04.243Z,2.65
2019-05-29T23:27:30.147Z,2.65
2019-05-29T23:29:54.743Z,2.90
2019-05-29T23:32:18.503Z,2.80
2019-05-29T23:34:46.121Z,2.42
2019-05-29T23:37:09.674Z,2.37
2019-05-29T23:39:33.594Z,2.40
2019-05-29T23:41:59.804Z,2.10
2019-05-29T23:44:23.351Z,1.98
2019-05-29T23:46:46.918Z,2.35
2019-05-29T23:49:12.263Z,2.10
2019-05-29T23:51:40.174Z,2.02
2019-05-29T23:54:04.005Z,2.08
2019-05-29T23:56:57.988Z,2.22
2019-05-29T23:59:23.470Z,2.08
